Nearby METAR Reports

 

KVSF - Springfield, Vermont, USA
Distance from station: WNW 17mi, 27km
Updated: Fri, Dec-14-2018 1:54pm EST
Overcast
Overcast
 Wind from S
Wind: S 7 mph , 11 km/h
Temperature: 36°F , 2°C
Wind Chill: 30°F , -1°C
Dew Point: 28°F , -2°C
Humidity: 75%
Barometer: 30.34 inHg , 1027.4 hPa
Clouds: Overcast
Visibility: 10 miles , 16 km
Cloud details: Overcast 3500 ft
2018/12/14 18:54 KVSF 141854Z AUTO 17006KT 10SM OVC035 02/M02 A3034 RMK AO2 SLP284 T00171017
KLEB - Lebanon, New Hampshire, USA
Distance from station: NNW 24mi, 39km
Updated: Fri, Dec-14-2018 1:53pm EST
Overcast
Overcast
 Wind from SSW
Wind: SSW 10 mph , 17 km/h
Temperature: 37°F , 3°C
Wind Chill: 30°F , -1°C
Dew Point: 28°F , -2°C
Humidity: 70%
Barometer: 30.33 inHg , 1027.1 hPa
Clouds: Overcast
Visibility: 10 miles , 16 km
Cloud details: Few Clouds 1400 ft
Overcast 3200 ft
2018/12/14 18:53 KLEB 141853Z 20009KT 10SM FEW014 OVC032 03/M02 A3033 RMK AO2 SLP279 T00331017
 
KEEN - Keene/Dillant, New Hampshire, USA
Distance from station: S 28mi, 45km
Updated: Fri, Dec-14-2018 1:56pm EST
Overcast
Overcast
 Wind from S
Wind: S 6 mph , 9 km/h
Temperature: 39°F , 4°C
Wind Chill: 35°F , 2°C
Dew Point: 34°F , 1°C
Humidity: 81%
Barometer: 30.36 inHg , 1028.1 hPa
Clouds: Overcast
Visibility: 10 miles , 16 km
Cloud details: Mostly cloudy 2000 ft
Overcast 4300 ft
2018/12/14 18:56 KEEN 141856Z AUTO 19005KT 10SM BKN020 OVC043 04/01 A3036 RMK AO2 SLP304 T00440006 $
KAFN - Jaffrey, New Hampshire, USA
Distance from station: SSE 35mi, 57km
Updated: Fri, Dec-14-2018 1:52pm EST
Overcast
Overcast
 Wind from S
Wind: S 8 mph , 13 km/h
Temperature: 39°F , 4°C
Wind Chill: 33°F , 1°C
Dew Point: 32°F , 0°C
Humidity: 75%
Barometer: 30.34 inHg , 1027.4 hPa
Clouds: Overcast
Visibility: 10 miles , 16 km
Cloud details: Overcast 4100 ft
2018/12/14 18:52 KAFN 141852Z AUTO 19007KT 10SM OVC041 04/00 A3034 RMK AO2 SLP289 T00440000
 
KCON - Concord, New Hampshire, USA
Distance from station: E 35mi, 57km
Updated: Fri, Dec-14-2018 1:51pm EST
Partly cloudy
Partly cloudy
 Wind from WNW
Wind: WNW 5 mph , 7 km/h
Temperature: 41°F , 5°C
Wind Chill: 38°F , 3°C
Dew Point: 27°F , -3°C
Humidity: 57%
Barometer: 30.37 inHg , 1028.4 hPa
Clouds: Partly cloudy
Visibility: 10 miles , 16 km
Cloud details: Partly cloudy 4900 ft
2018/12/14 18:51 KCON 141851Z AUTO 29004KT 10SM SCT049 05/M03 A3037 RMK AO2 SLP288 T00501033
K1P1 - Plymouth, New Hampshire, USA
Distance from station: NNE 41mi, 66km
Updated: Fri, Dec-14-2018 1:55pm EST
Overcast
Overcast
 Wind from ENE
Wind: ENE 3 mph , 6 km/h
Temperature: 34°F , 1°C
Dew Point: 25°F , -4°C
Humidity: 70%
Barometer: 30.37 inHg , 1028.4 hPa
Clouds: Overcast
Visibility: 10 miles , 16 km
Cloud details: Overcast 3800 ft
2018/12/14 18:55 K1P1 141855Z AUTO 07003KT 10SM OVC038 01/M04 A3037 RMK AO2 T00051041
 
KRUT - Rutland State, Vermont, USA
Distance from station: WNW 41mi, 66km
Updated: Fri, Dec-14-2018 1:56pm EST
Overcast
Overcast
 Wind from ESE
Wind: ESE 10 mph , 17 km/h
Temperature: 39°F , 4°C
Wind Chill: 32°F , 0°C
Dew Point: 32°F , 0°C
Humidity: 75%
Barometer: 30.29 inHg , 1025.7 hPa
Clouds: Overcast
Visibility: 10 miles , 16 km
Cloud details: Overcast 2600 ft
2018/12/14 18:56 KRUT 141856Z AUTO 12009KT 10SM OVC026 04/00 A3029 RMK AO2 SLP279 T00390000 PNO $
KLCI - Laconia Muni, New Hampshire, USA
Distance from station: ENE 44mi, 70km
Updated: Fri, Dec-14-2018 1:56pm EST
Overcast
Overcast
 Wind from ENE
Wind: ENE 3 mph , 6 km/h
Temperature: 34°F , 1°C
Dew Point: 27°F , -3°C
Humidity: 75%
Barometer: 30.37 inHg , 1028.4 hPa
Clouds: Overcast
Visibility: 10 miles , 16 km
Cloud details: Overcast 4200 ft
2018/12/14 18:56 KLCI 141856Z AUTO 07003KT 10SM OVC042 01/M03 A3037 RMK AO2 SLP303 T00111033 FZRANO $
 
KMHT - Manchester, New Hampshire, USA
Distance from station: ESE 46mi, 73km
Updated: Fri, Dec-14-2018 1:53pm EST
Mostly cloudy
Mostly cloudy
 Wind from S
Wind: S 9 mph , 15 km/h
Temperature: 45°F , 7°C
Wind Chill: 40°F , 4°C
Dew Point: 28°F , -2°C
Humidity: 53%
Barometer: 30.35 inHg , 1027.8 hPa
Clouds: Mostly cloudy
Visibility: 10 miles , 16 km
Cloud details: Partly cloudy 5000 ft
Mostly cloudy 22000 ft
2018/12/14 18:53 KMHT 141853Z 19008KT 10SM SCT050 BKN220 07/M02 A3035 RMK AO2 SLP296 T00721017
KASH - Nashua/Boire Fld, New Hampshire, USA
Distance from station: SE 49mi, 79km
Updated: Fri, Dec-14-2018 1:56pm EST
Partly cloudy
Partly cloudy
 Wind from varies
Wind: varies 5 mph , 7 km/h
Temperature: 46°F , 8°C
Wind Chill: 44°F , 7°C
Dew Point: 30°F , -1°C
Humidity: 53%
Barometer: 30.37 inHg , 1028.4 hPa
Clouds: Partly cloudy
Visibility: 10 miles , 16 km
Cloud details: Partly cloudy 5500 ft
2018/12/14 18:56 KASH 141856Z VRB04KT 10SM SCT055 08/M01 A3037 RMK AO2 SLP295 T00781006 $
 
KORE - Orange, Massachusetts, USA
Distance from station: S 50mi, 81km
Updated: Fri, Dec-14-2018 1:52pm EST
Overcast
Overcast
 Wind from S
Wind: S 10 mph , 17 km/h
Temperature: 43°F , 6°C
Wind Chill: 37°F , 3°C
Dew Point: 32°F , 0°C
Humidity: 66%
Barometer: 30.37 inHg , 1028.4 hPa
Clouds: Overcast
Visibility: 10 miles , 16 km
Cloud details: Overcast 4700 ft
2018/12/14 18:52 KORE 141852Z AUTO 19009KT 10SM OVC047 06/00 A3037 RMK AO2 SLP292 T00610000